sensor_id;sensor_type;location;lat;lon;timestamp;P1;durP1;ratioP1;P2;durP2;ratioP2
17259;SDS011;8746;49.230;9.220;2022-10-22T00:01:13;2.80;;;2.50;;
17259;SDS011;8746;49.230;9.220;2022-10-22T00:03:39;2.10;;;2.00;;
17259;SDS011;8746;49.230;9.220;2022-10-22T00:06:04;2.47;;;2.27;;
17259;SDS011;8746;49.230;9.220;2022-10-22T00:08:30;2.80;;;2.50;;
17259;SDS011;8746;49.230;9.220;2022-10-22T00:10:55;3.40;;;2.47;;
17259;SDS011;8746;49.230;9.220;2022-10-22T00:13:21;2.40;;;2.20;;
17259;SDS011;8746;49.230;9.220;2022-10-22T00:15:46;2.33;;;2.13;;
17259;SDS011;8746;49.230;9.220;2022-10-22T00:18:12;4.80;;;2.47;;
17259;SDS011;8746;49.230;9.220;2022-10-22T00:20:38;2.80;;;2.37;;
17259;SDS011;8746;49.230;9.220;2022-10-22T00:23:03;3.63;;;2.53;;
17259;SDS011;8746;49.230;9.220;2022-10-22T00:25:28;3.07;;;2.10;;
17259;SDS011;8746;49.230;9.220;2022-10-22T00:27:54;2.13;;;1.93;;
17259;SDS011;8746;49.230;9.220;2022-10-22T00:30:19;2.00;;;1.80;;
17259;SDS011;8746;49.230;9.220;2022-10-22T00:32:45;2.83;;;1.90;;
17259;SDS011;8746;49.230;9.220;2022-10-22T00:35:10;2.23;;;1.93;;
17259;SDS011;8746;49.230;9.220;2022-10-22T00:37:36;3.40;;;2.27;;
17259;SDS011;8746;49.230;9.220;2022-10-22T00:40:02;2.30;;;2.10;;
17259;SDS011;8746;49.230;9.220;2022-10-22T00:42:28;2.50;;;1.40;;
17259;SDS011;8746;49.230;9.220;2022-10-22T00:47:32;1.50;;;1.40;;
17259;SDS011;8746;49.230;9.220;2022-10-22T00:50:01;2.87;;;1.30;;
17259;SDS011;8746;49.230;9.220;2022-10-22T00:52:29;0.90;;;0.90;;
17259;SDS011;8746;49.230;9.220;2022-10-22T00:54:54;1.63;;;1.00;;
17259;SDS011;8746;49.230;9.220;2022-10-22T00:57:21;0.80;;;0.80;;
17259;SDS011;8746;49.230;9.220;2022-10-22T00:59:46;0.83;;;0.83;;
17259;SDS011;8746;49.230;9.220;2022-10-22T01:02:12;0.87;;;0.87;;
17259;SDS011;8746;49.230;9.220;2022-10-22T01:04:38;0.73;;;0.73;;
17259;SDS011;8746;49.230;9.220;2022-10-22T01:07:04;0.87;;;0.80;;
17259;SDS011;8746;49.230;9.220;2022-10-22T01:09:39;0.80;;;0.80;;
17259;SDS011;8746;49.230;9.220;2022-10-22T01:22:41;0.80;;;0.80;;
17259;SDS011;8746;49.230;9.220;2022-10-22T01:25:31;0.80;;;0.80;;
17259;SDS011;8746;49.230;9.220;2022-10-22T01:31:02;0.80;;;0.80;;
17259;SDS011;8746;49.230;9.220;2022-10-22T01:33:29;1.20;;;1.10;;
17259;SDS011;8746;49.230;9.220;2022-10-22T01:35:56;0.90;;;0.90;;
17259;SDS011;8746;49.230;9.220;2022-10-22T01:38:24;0.67;;;0.67;;
17259;SDS011;8746;49.230;9.220;2022-10-22T01:40:50;0.87;;;0.87;;
17259;SDS011;8746;49.230;9.220;2022-10-22T01:43:15;0.90;;;0.90;;
17259;SDS011;8746;49.230;9.220;2022-10-22T01:48:14;1.03;;;1.00;;
17259;SDS011;8746;49.230;9.220;2022-10-22T01:50:47;0.80;;;0.80;;
17259;SDS011;8746;49.230;9.220;2022-10-22T02:04:27;0.93;;;0.60;;
17259;SDS011;8746;49.230;9.220;2022-10-22T02:06:58;0.80;;;0.80;;
17259;SDS011;8746;49.230;9.220;2022-10-22T02:09:27;0.70;;;0.70;;
17259;SDS011;8746;49.230;9.220;2022-10-22T02:11:54;2.50;;;1.00;;
17259;SDS011;8746;49.230;9.220;2022-10-22T02:14:21;0.80;;;0.70;;
17259;SDS011;8746;49.230;9.220;2022-10-22T02:16:49;1.10;;;0.80;;
17259;SDS011;8746;49.230;9.220;2022-10-22T02:19:18;0.60;;;0.60;;
17259;SDS011;8746;49.230;9.220;2022-10-22T02:21:44;0.50;;;0.50;;
17259;SDS011;8746;49.230;9.220;2022-10-22T02:24:10;1.50;;;0.70;;
17259;SDS011;8746;49.230;9.220;2022-10-22T02:26:39;0.37;;;0.37;;
17259;SDS011;8746;49.230;9.220;2022-10-22T02:29:17;0.40;;;0.40;;
17259;SDS011;8746;49.230;9.220;2022-10-22T02:31:49;0.40;;;0.40;;
17259;SDS011;8746;49.230;9.220;2022-10-22T02:34:20;0.53;;;0.50;;
17259;SDS011;8746;49.230;9.220;2022-10-22T02:36:48;0.50;;;0.50;;
17259;SDS011;8746;49.230;9.220;2022-10-22T02:39:16;0.60;;;0.60;;
17259;SDS011;8746;49.230;9.220;2022-10-22T02:41:43;0.40;;;0.40;;
17259;SDS011;8746;49.230;9.220;2022-10-22T02:44:09;0.47;;;0.47;;
17259;SDS011;8746;49.230;9.220;2022-10-22T02:46:35;1.57;;;0.37;;
17259;SDS011;8746;49.230;9.220;2022-10-22T02:49:02;0.50;;;0.50;;
17259;SDS011;8746;49.230;9.220;2022-10-22T02:51:28;0.50;;;0.50;;
17259;SDS011;8746;49.230;9.220;2022-10-22T02:53:53;0.40;;;0.40;;
17259;SDS011;8746;49.230;9.220;2022-10-22T02:56:18;0.30;;;0.30;;
17259;SDS011;8746;49.230;9.220;2022-10-22T02:58:44;0.47;;;0.47;;
17259;SDS011;8746;49.230;9.220;2022-10-22T03:01:09;0.40;;;0.40;;
17259;SDS011;8746;49.230;9.220;2022-10-22T03:03:35;0.40;;;0.40;;
17259;SDS011;8746;49.230;9.220;2022-10-22T03:06:00;0.40;;;0.40;;
17259;SDS011;8746;49.230;9.220;2022-10-22T03:08:25;0.50;;;0.50;;
17259;SDS011;8746;49.230;9.220;2022-10-22T03:10:51;0.47;;;0.47;;
17259;SDS011;8746;49.230;9.220;2022-10-22T03:13:16;0.83;;;0.60;;
17259;SDS011;8746;49.230;9.220;2022-10-22T03:15:41;0.87;;;0.60;;
17259;SDS011;8746;49.230;9.220;2022-10-22T03:18:07;1.07;;;0.53;;
17259;SDS011;8746;49.230;9.220;2022-10-22T03:20:33;0.60;;;0.60;;
17259;SDS011;8746;49.230;9.220;2022-10-22T03:22:58;0.50;;;0.50;;
17259;SDS011;8746;49.230;9.220;2022-10-22T03:25:25;1.57;;;0.80;;
17259;SDS011;8746;49.230;9.220;2022-10-22T03:27:52;0.50;;;0.50;;
17259;SDS011;8746;49.230;9.220;2022-10-22T03:30:20;0.40;;;0.40;;
17259;SDS011;8746;49.230;9.220;2022-10-22T03:32:46;0.70;;;0.70;;
17259;SDS011;8746;49.230;9.220;2022-10-22T03:35:11;0.50;;;0.50;;
17259;SDS011;8746;49.230;9.220;2022-10-22T03:37:37;0.67;;;0.67;;
17259;SDS011;8746;49.230;9.220;2022-10-22T03:40:04;0.40;;;0.40;;
17259;SDS011;8746;49.230;9.220;2022-10-22T03:42:31;0.50;;;0.50;;
17259;SDS011;8746;49.230;9.220;2022-10-22T03:44:56;0.80;;;0.80;;
17259;SDS011;8746;49.230;9.220;2022-10-22T03:47:21;1.83;;;1.53;;
17259;SDS011;8746;49.230;9.220;2022-10-22T03:49:50;2.80;;;2.10;;
17259;SDS011;8746;49.230;9.220;2022-10-22T03:52:16;1.60;;;1.50;;
17259;SDS011;8746;49.230;9.220;2022-10-22T03:54:42;1.20;;;1.10;;
17259;SDS011;8746;49.230;9.220;2022-10-22T03:57:08;0.83;;;0.83;;
17259;SDS011;8746;49.230;9.220;2022-10-22T03:59:35;0.90;;;0.90;;
17259;SDS011;8746;49.230;9.220;2022-10-22T04:02:01;1.00;;;1.00;;
17259;SDS011;8746;49.230;9.220;2022-10-22T04:04:26;0.67;;;0.67;;
17259;SDS011;8746;49.230;9.220;2022-10-22T04:06:51;1.23;;;0.90;;
17259;SDS011;8746;49.230;9.220;2022-10-22T04:09:17;1.10;;;1.10;;
17259;SDS011;8746;49.230;9.220;2022-10-22T04:11:42;0.70;;;0.70;;
17259;SDS011;8746;49.230;9.220;2022-10-22T04:14:07;0.80;;;0.80;;
17259;SDS011;8746;49.230;9.220;2022-10-22T04:16:33;0.80;;;0.80;;
17259;SDS011;8746;49.230;9.220;2022-10-22T04:18:58;0.70;;;0.70;;
17259;SDS011;8746;49.230;9.220;2022-10-22T04:21:24;0.83;;;0.83;;
17259;SDS011;8746;49.230;9.220;2022-10-22T04:23:50;0.70;;;0.70;;
17259;SDS011;8746;49.230;9.220;2022-10-22T04:26:16;1.67;;;0.80;;
17259;SDS011;8746;49.230;9.220;2022-10-22T04:28:43;0.60;;;0.60;;
17259;SDS011;8746;49.230;9.220;2022-10-22T04:31:10;0.87;;;0.87;;
17259;SDS011;8746;49.230;9.220;2022-10-22T04:33:38;0.70;;;0.63;;
17259;SDS011;8746;49.230;9.220;2022-10-22T04:36:08;0.70;;;0.70;;
17259;SDS011;8746;49.230;9.220;2022-10-22T04:38:36;2.47;;;0.80;;
17259;SDS011;8746;49.230;9.220;2022-10-22T04:41:09;0.80;;;0.73;;
17259;SDS011;8746;49.230;9.220;2022-10-22T04:43:38;0.77;;;0.77;;
17259;SDS011;8746;49.230;9.220;2022-10-22T04:46:04;0.80;;;0.50;;
17259;SDS011;8746;49.230;9.220;2022-10-22T04:48:30;0.50;;;0.50;;
17259;SDS011;8746;49.230;9.220;2022-10-22T04:50:56;0.73;;;0.73;;
17259;SDS011;8746;49.230;9.220;2022-10-22T04:53:22;0.80;;;0.80;;
17259;SDS011;8746;49.230;9.220;2022-10-22T04:55:47;0.97;;;0.90;;
17259;SDS011;8746;49.230;9.220;2022-10-22T04:58:13;0.60;;;0.60;;
17259;SDS011;8746;49.230;9.220;2022-10-22T05:00:38;0.50;;;0.50;;
17259;SDS011;8746;49.230;9.220;2022-10-22T05:03:03;0.53;;;0.50;;
17259;SDS011;8746;49.230;9.220;2022-10-22T05:05:29;0.60;;;0.60;;
17259;SDS011;8746;49.230;9.220;2022-10-22T05:07:54;0.80;;;0.77;;
17259;SDS011;8746;49.230;9.220;2022-10-22T05:10:19;0.70;;;0.70;;
17259;SDS011;8746;49.230;9.220;2022-10-22T05:12:44;0.80;;;0.80;;
17259;SDS011;8746;49.230;9.220;2022-10-22T05:15:10;0.97;;;0.97;;
17259;SDS011;8746;49.230;9.220;2022-10-22T05:17:35;0.90;;;0.90;;
17259;SDS011;8746;49.230;9.220;2022-10-22T05:20:01;0.70;;;0.70;;
17259;SDS011;8746;49.230;9.220;2022-10-22T05:22:28;1.50;;;0.80;;
17259;SDS011;8746;49.230;9.220;2022-10-22T05:24:53;0.80;;;0.80;;
17259;SDS011;8746;49.230;9.220;2022-10-22T05:27:18;0.90;;;0.90;;
17259;SDS011;8746;49.230;9.220;2022-10-22T05:29:45;0.80;;;0.80;;
17259;SDS011;8746;49.230;9.220;2022-10-22T05:32:10;5.30;;;0.90;;
17259;SDS011;8746;49.230;9.220;2022-10-22T05:34:36;3.70;;;1.10;;
17259;SDS011;8746;49.230;9.220;2022-10-22T05:37:01;0.60;;;0.60;;
17259;SDS011;8746;49.230;9.220;2022-10-22T05:39:27;1.00;;;0.90;;
17259;SDS011;8746;49.230;9.220;2022-10-22T05:41:52;0.90;;;0.90;;
17259;SDS011;8746;49.230;9.220;2022-10-22T05:44:18;1.00;;;1.00;;
17259;SDS011;8746;49.230;9.220;2022-10-22T05:46:43;0.90;;;0.90;;
17259;SDS011;8746;49.230;9.220;2022-10-22T05:49:10;1.20;;;1.10;;
17259;SDS011;8746;49.230;9.220;2022-10-22T05:51:37;1.07;;;0.90;;
17259;SDS011;8746;49.230;9.220;2022-10-22T05:54:04;1.30;;;1.20;;
17259;SDS011;8746;49.230;9.220;2022-10-22T05:56:31;1.10;;;1.10;;
17259;SDS011;8746;49.230;9.220;2022-10-22T05:58:57;1.83;;;1.13;;
17259;SDS011;8746;49.230;9.220;2022-10-22T06:01:24;1.20;;;1.13;;
17259;SDS011;8746;49.230;9.220;2022-10-22T06:03:52;0.97;;;0.83;;
17259;SDS011;8746;49.230;9.220;2022-10-22T06:06:20;0.97;;;0.80;;
17259;SDS011;8746;49.230;9.220;2022-10-22T06:08:51;0.93;;;0.93;;
17259;SDS011;8746;49.230;9.220;2022-10-22T06:11:18;1.00;;;1.00;;
17259;SDS011;8746;49.230;9.220;2022-10-22T06:13:45;1.30;;;1.20;;
17259;SDS011;8746;49.230;9.220;2022-10-22T06:16:11;1.10;;;1.10;;
17259;SDS011;8746;49.230;9.220;2022-10-22T06:18:37;1.73;;;1.40;;
17259;SDS011;8746;49.230;9.220;2022-10-22T06:21:03;1.33;;;1.03;;
17259;SDS011;8746;49.230;9.220;2022-10-22T06:23:32;1.60;;;1.50;;
17259;SDS011;8746;49.230;9.220;2022-10-22T06:25:58;1.30;;;1.20;;
17259;SDS011;8746;49.230;9.220;2022-10-22T06:28:24;4.20;;;1.50;;
17259;SDS011;8746;49.230;9.220;2022-10-22T06:30:49;2.10;;;1.50;;
17259;SDS011;8746;49.230;9.220;2022-10-22T06:33:15;1.40;;;1.30;;
17259;SDS011;8746;49.230;9.220;2022-10-22T06:35:40;1.50;;;1.40;;
17259;SDS011;8746;49.230;9.220;2022-10-22T06:38:05;1.40;;;1.30;;
17259;SDS011;8746;49.230;9.220;2022-10-22T06:40:31;1.63;;;1.50;;
17259;SDS011;8746;49.230;9.220;2022-10-22T06:43:00;2.33;;;1.90;;
17259;SDS011;8746;49.230;9.220;2022-10-22T06:45:26;2.03;;;1.77;;
17259;SDS011;8746;49.230;9.220;2022-10-22T06:47:51;1.90;;;1.80;;
17259;SDS011;8746;49.230;9.220;2022-10-22T06:50:17;1.70;;;1.60;;
17259;SDS011;8746;49.230;9.220;2022-10-22T06:52:43;2.27;;;2.10;;
17259;SDS011;8746;49.230;9.220;2022-10-22T06:55:08;2.73;;;1.90;;
17259;SDS011;8746;49.230;9.220;2022-10-22T06:57:34;3.70;;;1.57;;
17259;SDS011;8746;49.230;9.220;2022-10-22T06:59:59;3.07;;;1.73;;
17259;SDS011;8746;49.230;9.220;2022-10-22T07:02:24;2.07;;;1.87;;
17259;SDS011;8746;49.230;9.220;2022-10-22T07:04:50;1.37;;;1.27;;
17259;SDS011;8746;49.230;9.220;2022-10-22T07:07:15;1.83;;;1.40;;
17259;SDS011;8746;49.230;9.220;2022-10-22T07:09:40;1.20;;;1.20;;
17259;SDS011;8746;49.230;9.220;2022-10-22T07:12:09;2.80;;;1.50;;
17259;SDS011;8746;49.230;9.220;2022-10-22T07:14:35;1.17;;;1.10;;
17259;SDS011;8746;49.230;9.220;2022-10-22T07:17:00;1.67;;;1.40;;
17259;SDS011;8746;49.230;9.220;2022-10-22T07:19:26;1.37;;;1.27;;
17259;SDS011;8746;49.230;9.220;2022-10-22T07:21:51;1.53;;;1.30;;
17259;SDS011;8746;49.230;9.220;2022-10-22T07:24:17;1.70;;;1.43;;
17259;SDS011;8746;49.230;9.220;2022-10-22T07:26:42;2.10;;;1.90;;
17259;SDS011;8746;49.230;9.220;2022-10-22T07:29:07;1.57;;;1.47;;
17259;SDS011;8746;49.230;9.220;2022-10-22T07:31:34;1.80;;;1.67;;
17259;SDS011;8746;49.230;9.220;2022-10-22T07:33:59;1.90;;;1.70;;
17259;SDS011;8746;49.230;9.220;2022-10-22T07:36:25;1.47;;;1.33;;
17259;SDS011;8746;49.230;9.220;2022-10-22T07:38:55;1.50;;;1.40;;
17259;SDS011;8746;49.230;9.220;2022-10-22T07:41:22;1.70;;;1.40;;
17259;SDS011;8746;49.230;9.220;2022-10-22T07:43:47;1.57;;;1.47;;
17259;SDS011;8746;49.230;9.220;2022-10-22T07:46:13;1.53;;;1.43;;
17259;SDS011;8746;49.230;9.220;2022-10-22T07:48:38;1.43;;;1.33;;
17259;SDS011;8746;49.230;9.220;2022-10-22T07:51:04;1.93;;;1.83;;
17259;SDS011;8746;49.230;9.220;2022-10-22T07:53:30;1.70;;;1.60;;
17259;SDS011;8746;49.230;9.220;2022-10-22T07:55:55;3.47;;;2.37;;
17259;SDS011;8746;49.230;9.220;2022-10-22T07:58:21;1.67;;;1.57;;
17259;SDS011;8746;49.230;9.220;2022-10-22T08:00:47;2.10;;;1.90;;
17259;SDS011;8746;49.230;9.220;2022-10-22T08:03:14;3.17;;;1.80;;
17259;SDS011;8746;49.230;9.220;2022-10-22T08:05:40;3.83;;;2.33;;
17259;SDS011;8746;49.230;9.220;2022-10-22T08:08:10;5.13;;;2.50;;
17259;SDS011;8746;49.230;9.220;2022-10-22T08:10:36;2.10;;;1.90;;
17259;SDS011;8746;49.230;9.220;2022-10-22T08:13:02;1.90;;;1.80;;
17259;SDS011;8746;49.230;9.220;2022-10-22T08:15:28;1.70;;;1.60;;
17259;SDS011;8746;49.230;9.220;2022-10-22T08:17:53;2.33;;;1.90;;
17259;SDS011;8746;49.230;9.220;2022-10-22T08:20:19;2.20;;;2.00;;
17259;SDS011;8746;49.230;9.220;2022-10-22T08:22:44;2.50;;;2.00;;
17259;SDS011;8746;49.230;9.220;2022-10-22T08:25:10;3.13;;;2.50;;
17259;SDS011;8746;49.230;9.220;2022-10-22T08:27:36;4.33;;;2.30;;
17259;SDS011;8746;49.230;9.220;2022-10-22T08:30:02;2.33;;;2.13;;
17259;SDS011;8746;49.230;9.220;2022-10-22T08:32:28;1.80;;;1.70;;
17259;SDS011;8746;49.230;9.220;2022-10-22T08:34:54;3.00;;;2.30;;
17259;SDS011;8746;49.230;9.220;2022-10-22T08:37:19;2.47;;;1.90;;
17259;SDS011;8746;49.230;9.220;2022-10-22T08:39:45;2.47;;;1.60;;
17259;SDS011;8746;49.230;9.220;2022-10-22T08:42:19;3.40;;;1.77;;
17259;SDS011;8746;49.230;9.220;2022-10-22T08:45:00;2.37;;;1.63;;
17259;SDS011;8746;49.230;9.220;2022-10-22T08:50:13;1.60;;;1.50;;
17259;SDS011;8746;49.230;9.220;2022-10-22T08:52:44;1.83;;;1.70;;
17259;SDS011;8746;49.230;9.220;2022-10-22T08:55:13;1.70;;;1.60;;
17259;SDS011;8746;49.230;9.220;2022-10-22T09:00:34;1.43;;;1.33;;
17259;SDS011;8746;49.230;9.220;2022-10-22T09:03:13;1.97;;;1.63;;
17259;SDS011;8746;49.230;9.220;2022-10-22T09:08:32;1.40;;;1.30;;
17259;SDS011;8746;49.230;9.220;2022-10-22T09:13:30;1.03;;;1.03;;
17259;SDS011;8746;49.230;9.220;2022-10-22T09:15:59;3.83;;;1.47;;
17259;SDS011;8746;49.230;9.220;2022-10-22T09:18:38;1.20;;;1.15;;
17259;SDS011;8746;49.230;9.220;2022-10-22T09:21:12;1.77;;;1.23;;
17259;SDS011;8746;49.230;9.220;2022-10-22T09:26:33;1.20;;;1.20;;
17259;SDS011;8746;49.230;9.220;2022-10-22T09:29:02;0.88;;;0.88;;
17259;SDS011;8746;49.230;9.220;2022-10-22T09:31:29;0.85;;;0.85;;
17259;SDS011;8746;49.230;9.220;2022-10-22T09:33:56;0.75;;;0.75;;
17259;SDS011;8746;49.230;9.220;2022-10-22T09:36:24;0.82;;;0.82;;
17259;SDS011;8746;49.230;9.220;2022-10-22T09:38:53;1.10;;;1.00;;
17259;SDS011;8746;49.230;9.220;2022-10-22T09:41:19;0.93;;;0.90;;
17259;SDS011;8746;49.230;9.220;2022-10-22T09:43:48;0.93;;;0.93;;
17259;SDS011;8746;49.230;9.220;2022-10-22T09:46:15;1.05;;;1.00;;
17259;SDS011;8746;49.230;9.220;2022-10-22T09:48:42;0.65;;;0.65;;
17259;SDS011;8746;49.230;9.220;2022-10-22T09:52:17;0.65;;;0.65;;
17259;SDS011;8746;49.230;9.220;2022-10-22T09:54:22;3.22;;;0.60;;
17259;SDS011;8746;49.230;9.220;2022-10-22T09:56:53;0.50;;;0.50;;
17259;SDS011;8746;49.230;9.220;2022-10-22T09:59:25;0.50;;;0.50;;
17259;SDS011;8746;49.230;9.220;2022-10-22T10:02:00;0.50;;;0.50;;
17259;SDS011;8746;49.230;9.220;2022-10-22T10:04:41;0.30;;;0.30;;
17259;SDS011;8746;49.230;9.220;2022-10-22T10:07:29;0.40;;;0.40;;
17259;SDS011;8746;49.230;9.220;2022-10-22T10:09:56;0.40;;;0.40;;
17259;SDS011;8746;49.230;9.220;2022-10-22T10:20:53;0.47;;;0.47;;
17259;SDS011;8746;49.230;9.220;2022-10-22T10:26:06;0.38;;;0.38;;
17259;SDS011;8746;49.230;9.220;2022-10-22T10:28:44;0.35;;;0.35;;
17259;SDS011;8746;49.230;9.220;2022-10-22T10:37:14;0.80;;;0.35;;
17259;SDS011;8746;49.230;9.220;2022-10-22T10:39:56;0.35;;;0.35;;
17259;SDS011;8746;49.230;9.220;2022-10-22T10:42:43;0.20;;;0.20;;
17259;SDS011;8746;49.230;9.220;2022-10-22T10:45:22;0.20;;;0.20;;
17259;SDS011;8746;49.230;9.220;2022-10-22T10:53:35;0.28;;;0.28;;
17259;SDS011;8746;49.230;9.220;2022-10-22T11:04:23;0.40;;;0.40;;
17259;SDS011;8746;49.230;9.220;2022-10-22T11:07:16;0.20;;;0.20;;
17259;SDS011;8746;49.230;9.220;2022-10-22T11:09:45;0.25;;;0.25;;
17259;SDS011;8746;49.230;9.220;2022-10-22T11:12:23;0.20;;;0.20;;
17259;SDS011;8746;49.230;9.220;2022-10-22T11:15:11;0.13;;;0.13;;
17259;SDS011;8746;49.230;9.220;2022-10-22T11:17:49;0.40;;;0.30;;
17259;SDS011;8746;49.230;9.220;2022-10-22T11:23:10;0.30;;;0.30;;
17259;SDS011;8746;49.230;9.220;2022-10-22T11:25:41;0.30;;;0.30;;
17259;SDS011;8746;49.230;9.220;2022-10-22T11:28:45;0.30;;;0.30;;
17259;SDS011;8746;49.230;9.220;2022-10-22T11:31:15;0.55;;;0.50;;
17259;SDS011;8746;49.230;9.220;2022-10-22T11:33:50;0.30;;;0.30;;
17259;SDS011;8746;49.230;9.220;2022-10-22T11:36:21;0.50;;;0.47;;
17259;SDS011;8746;49.230;9.220;2022-10-22T11:38:49;0.40;;;0.40;;
17259;SDS011;8746;49.230;9.220;2022-10-22T11:41:16;0.50;;;0.50;;
17259;SDS011;8746;49.230;9.220;2022-10-22T11:48:44;0.40;;;0.40;;
17259;SDS011;8746;49.230;9.220;2022-10-22T11:51:28;0.38;;;0.38;;
17259;SDS011;8746;49.230;9.220;2022-10-22T11:54:02;0.40;;;0.40;;
17259;SDS011;8746;49.230;9.220;2022-10-22T11:57:19;0.40;;;0.40;;
17259;SDS011;8746;49.230;9.220;2022-10-22T12:02:23;0.38;;;0.38;;
17259;SDS011;8746;49.230;9.220;2022-10-22T12:04:54;1.45;;;0.43;;
17259;SDS011;8746;49.230;9.220;2022-10-22T12:08:00;0.40;;;0.40;;
17259;SDS011;8746;49.230;9.220;2022-10-22T12:16:42;0.45;;;0.45;;
17259;SDS011;8746;49.230;9.220;2022-10-22T12:21:58;0.55;;;0.40;;
17259;SDS011;8746;49.230;9.220;2022-10-22T12:24:30;0.20;;;0.20;;
17259;SDS011;8746;49.230;9.220;2022-10-22T12:26:59;0.30;;;0.30;;
17259;SDS011;8746;49.230;9.220;2022-10-22T12:29:24;0.65;;;0.47;;
17259;SDS011;8746;49.230;9.220;2022-10-22T12:31:51;0.43;;;0.43;;
17259;SDS011;8746;49.230;9.220;2022-10-22T12:34:21;1.42;;;0.57;;
17259;SDS011;8746;49.230;9.220;2022-10-22T12:36:48;0.40;;;0.40;;
17259;SDS011;8746;49.230;9.220;2022-10-22T12:39:16;0.40;;;0.40;;
17259;SDS011;8746;49.230;9.220;2022-10-22T12:41:44;0.63;;;0.63;;
17259;SDS011;8746;49.230;9.220;2022-10-22T12:44:11;0.45;;;0.30;;
17259;SDS011;8746;49.230;9.220;2022-10-22T12:46:38;0.30;;;0.30;;
17259;SDS011;8746;49.230;9.220;2022-10-22T12:49:06;0.77;;;0.50;;
17259;SDS011;8746;49.230;9.220;2022-10-22T12:51:37;0.70;;;0.45;;
17259;SDS011;8746;49.230;9.220;2022-10-22T12:54:07;0.40;;;0.40;;
17259;SDS011;8746;49.230;9.220;2022-10-22T12:56:39;0.32;;;0.30;;
17259;SDS011;8746;49.230;9.220;2022-10-22T12:59:21;0.57;;;0.30;;
17259;SDS011;8746;49.230;9.220;2022-10-22T13:01:49;0.47;;;0.47;;
17259;SDS011;8746;49.230;9.220;2022-10-22T13:09:57;1.15;;;0.35;;
17259;SDS011;8746;49.230;9.220;2022-10-22T13:12:24;0.30;;;0.30;;
17259;SDS011;8746;49.230;9.220;2022-10-22T13:14:51;0.57;;;0.47;;
17259;SDS011;8746;49.230;9.220;2022-10-22T13:17:18;1.45;;;0.50;;
17259;SDS011;8746;49.230;9.220;2022-10-22T13:22:23;0.60;;;0.60;;
17259;SDS011;8746;49.230;9.220;2022-10-22T13:24:57;0.30;;;0.30;;
17259;SDS011;8746;49.230;9.220;2022-10-22T13:27:27;0.30;;;0.30;;
17259;SDS011;8746;49.230;9.220;2022-10-22T13:29:55;0.57;;;0.55;;
17259;SDS011;8746;49.230;9.220;2022-10-22T13:32:27;1.10;;;0.40;;
17259;SDS011;8746;49.230;9.220;2022-10-22T13:35:03;0.20;;;0.20;;
17259;SDS011;8746;49.230;9.220;2022-10-22T13:37:30;1.30;;;0.45;;
17259;SDS011;8746;49.230;9.220;2022-10-22T13:39:57;0.75;;;0.40;;
17259;SDS011;8746;49.230;9.220;2022-10-22T13:42:23;0.85;;;0.38;;
17259;SDS011;8746;49.230;9.220;2022-10-22T13:44:48;0.40;;;0.40;;
17259;SDS011;8746;49.230;9.220;2022-10-22T13:47:27;0.77;;;0.52;;
17259;SDS011;8746;49.230;9.220;2022-10-22T13:49:57;0.95;;;0.57;;
17259;SDS011;8746;49.230;9.220;2022-10-22T13:52:28;0.50;;;0.50;;
17259;SDS011;8746;49.230;9.220;2022-10-22T13:54:59;0.70;;;0.30;;
17259;SDS011;8746;49.230;9.220;2022-10-22T13:57:24;0.30;;;0.30;;
17259;SDS011;8746;49.230;9.220;2022-10-22T13:59:50;0.40;;;0.40;;
17259;SDS011;8746;49.230;9.220;2022-10-22T14:02:15;0.32;;;0.32;;
17259;SDS011;8746;49.230;9.220;2022-10-22T14:04:42;0.50;;;0.50;;
17259;SDS011;8746;49.230;9.220;2022-10-22T14:07:12;0.65;;;0.50;;
17259;SDS011;8746;49.230;9.220;2022-10-22T14:09:38;1.17;;;0.60;;
17259;SDS011;8746;49.230;9.220;2022-10-22T14:12:09;0.50;;;0.50;;
17259;SDS011;8746;49.230;9.220;2022-10-22T14:14:36;0.77;;;0.43;;
17259;SDS011;8746;49.230;9.220;2022-10-22T14:17:02;0.45;;;0.45;;
17259;SDS011;8746;49.230;9.220;2022-10-22T14:19:28;0.43;;;0.43;;
17259;SDS011;8746;49.230;9.220;2022-10-22T14:21:54;0.40;;;0.40;;
17259;SDS011;8746;49.230;9.220;2022-10-22T14:24:20;0.65;;;0.45;;
17259;SDS011;8746;49.230;9.220;2022-10-22T14:26:45;0.30;;;0.30;;
17259;SDS011;8746;49.230;9.220;2022-10-22T14:29:10;0.85;;;0.60;;
17259;SDS011;8746;49.230;9.220;2022-10-22T14:31:36;0.50;;;0.50;;
17259;SDS011;8746;49.230;9.220;2022-10-22T14:34:05;1.27;;;0.63;;
17259;SDS011;8746;49.230;9.220;2022-10-22T14:36:30;0.55;;;0.50;;
17259;SDS011;8746;49.230;9.220;2022-10-22T14:38:56;0.30;;;0.30;;
17259;SDS011;8746;49.230;9.220;2022-10-22T14:41:22;0.85;;;0.50;;
17259;SDS011;8746;49.230;9.220;2022-10-22T14:43:48;0.30;;;0.30;;
17259;SDS011;8746;49.230;9.220;2022-10-22T14:46:15;0.40;;;0.40;;
17259;SDS011;8746;49.230;9.220;2022-10-22T14:48:41;0.60;;;0.50;;
17259;SDS011;8746;49.230;9.220;2022-10-22T14:51:10;0.47;;;0.47;;
17259;SDS011;8746;49.230;9.220;2022-10-22T14:53:41;0.68;;;0.50;;
17259;SDS011;8746;49.230;9.220;2022-10-22T14:56:09;2.08;;;0.50;;
17259;SDS011;8746;49.230;9.220;2022-10-22T14:58:36;0.47;;;0.40;;
17259;SDS011;8746;49.230;9.220;2022-10-22T15:01:02;0.30;;;0.30;;
17259;SDS011;8746;49.230;9.220;2022-10-22T15:03:27;0.40;;;0.35;;
17259;SDS011;8746;49.230;9.220;2022-10-22T15:05:53;0.50;;;0.50;;
17259;SDS011;8746;49.230;9.220;2022-10-22T15:08:19;0.50;;;0.50;;
17259;SDS011;8746;49.230;9.220;2022-10-22T15:10:45;0.57;;;0.57;;
17259;SDS011;8746;49.230;9.220;2022-10-22T15:13:21;0.77;;;0.40;;
17259;SDS011;8746;49.230;9.220;2022-10-22T15:15:46;0.52;;;0.40;;
17259;SDS011;8746;49.230;9.220;2022-10-22T15:18:11;0.73;;;0.55;;
17259;SDS011;8746;49.230;9.220;2022-10-22T15:20:37;0.65;;;0.63;;
17259;SDS011;8746;49.230;9.220;2022-10-22T15:23:02;0.45;;;0.43;;
17259;SDS011;8746;49.230;9.220;2022-10-22T15:25:27;0.35;;;0.30;;
17259;SDS011;8746;49.230;9.220;2022-10-22T15:27:54;1.75;;;0.60;;
17259;SDS011;8746;49.230;9.220;2022-10-22T15:30:19;0.40;;;0.40;;
17259;SDS011;8746;49.230;9.220;2022-10-22T15:32:45;1.60;;;0.60;;
17259;SDS011;8746;49.230;9.220;2022-10-22T15:35:10;0.60;;;0.60;;
17259;SDS011;8746;49.230;9.220;2022-10-22T15:37:36;0.60;;;0.60;;
17259;SDS011;8746;49.230;9.220;2022-10-22T15:40:03;1.38;;;0.75;;
17259;SDS011;8746;49.230;9.220;2022-10-22T15:42:31;0.75;;;0.70;;
17259;SDS011;8746;49.230;9.220;2022-10-22T15:44:57;1.85;;;0.50;;
17259;SDS011;8746;49.230;9.220;2022-10-22T15:47:23;0.60;;;0.45;;
17259;SDS011;8746;49.230;9.220;2022-10-22T15:49:52;0.60;;;0.60;;
17259;SDS011;8746;49.230;9.220;2022-10-22T15:52:18;0.85;;;0.50;;
17259;SDS011;8746;49.230;9.220;2022-10-22T15:54:45;1.13;;;0.45;;
17259;SDS011;8746;49.230;9.220;2022-10-22T15:57:11;0.80;;;0.60;;
17259;SDS011;8746;49.230;9.220;2022-10-22T15:59:36;0.40;;;0.40;;
17259;SDS011;8746;49.230;9.220;2022-10-22T16:02:01;0.50;;;0.50;;
17259;SDS011;8746;49.230;9.220;2022-10-22T16:04:27;0.60;;;0.60;;
17259;SDS011;8746;49.230;9.220;2022-10-22T16:06:52;0.52;;;0.52;;
17259;SDS011;8746;49.230;9.220;2022-10-22T16:09:22;0.50;;;0.50;;
17259;SDS011;8746;49.230;9.220;2022-10-22T16:11:49;0.43;;;0.43;;
17259;SDS011;8746;49.230;9.220;2022-10-22T16:14:16;1.90;;;0.60;;
17259;SDS011;8746;49.230;9.220;2022-10-22T16:16:44;0.57;;;0.55;;
17259;SDS011;8746;49.230;9.220;2022-10-22T16:19:12;1.45;;;0.50;;
17259;SDS011;8746;49.230;9.220;2022-10-22T16:21:39;0.60;;;0.60;;
17259;SDS011;8746;49.230;9.220;2022-10-22T16:24:05;0.85;;;0.65;;
17259;SDS011;8746;49.230;9.220;2022-10-22T16:26:32;0.50;;;0.50;;
17259;SDS011;8746;49.230;9.220;2022-10-22T16:28:57;0.52;;;0.52;;
17259;SDS011;8746;49.230;9.220;2022-10-22T16:31:23;0.60;;;0.60;;
17259;SDS011;8746;49.230;9.220;2022-10-22T16:33:49;0.70;;;0.70;;
17259;SDS011;8746;49.230;9.220;2022-10-22T16:36:15;0.50;;;0.50;;
17259;SDS011;8746;49.230;9.220;2022-10-22T16:38:43;0.82;;;0.82;;
17259;SDS011;8746;49.230;9.220;2022-10-22T16:41:10;0.93;;;0.82;;
17259;SDS011;8746;49.230;9.220;2022-10-22T16:43:40;0.70;;;0.70;;
17259;SDS011;8746;49.230;9.220;2022-10-22T16:46:07;0.60;;;0.60;;
17259;SDS011;8746;49.230;9.220;2022-10-22T16:48:33;1.63;;;0.90;;